createdAt,value
2016-09-02T00:00:12.257Z,0.00
2016-09-02T00:01:11.761Z,0.00
2016-09-02T00:02:11.933Z,0.00
2016-09-02T00:03:12.439Z,0.00
2016-09-02T00:04:12.956Z,0.00
2016-09-02T00:05:13.464Z,0.00
2016-09-02T00:06:14.008Z,0.00
2016-09-02T00:07:14.511Z,0.00
2016-09-02T00:08:15.160Z,0.00
2016-09-02T00:09:15.529Z,0.00
2016-09-02T00:10:16.032Z,0.00
2016-09-02T00:11:16.540Z,0.00
2016-09-02T00:12:17.058Z,0.00
2016-09-02T00:13:17.570Z,0.00
2016-09-02T00:14:18.089Z,0.00
2016-09-02T00:15:18.594Z,0.00
2016-09-02T00:16:19.103Z,0.00
2016-09-02T00:17:19.630Z,0.00
2016-09-02T00:18:20.124Z,0.00
2016-09-02T00:19:20.791Z,0.00
2016-09-02T00:20:21.149Z,0.00
2016-09-02T00:21:21.665Z,0.00
2016-09-02T00:22:22.198Z,0.00
2016-09-02T00:23:22.683Z,0.00
2016-09-02T00:24:23.196Z,0.00
2016-09-02T00:25:23.712Z,0.00
2016-09-02T00:26:24.216Z,0.00
2016-09-02T00:27:24.729Z,0.00
2016-09-02T00:28:25.240Z,0.00
2016-09-02T00:29:25.750Z,0.00
2016-09-02T00:30:26.264Z,0.00
2016-09-02T00:31:26.772Z,0.00
2016-09-02T00:32:27.283Z,0.00
2016-09-02T00:33:27.794Z,0.00
2016-09-02T00:34:28.319Z,0.00
2016-09-02T00:35:28.820Z,0.00
2016-09-02T00:36:29.330Z,0.00
2016-09-02T00:37:29.843Z,0.00
2016-09-02T00:38:30.352Z,0.00
2016-09-02T00:39:30.863Z,0.00
2016-09-02T00:40:31.380Z,0.00
2016-09-02T00:41:31.891Z,0.00
2016-09-02T00:42:32.409Z,0.00
2016-09-02T00:43:32.914Z,0.00
2016-09-02T00:44:33.433Z,0.00
2016-09-02T00:45:33.941Z,0.00
2016-09-02T00:46:34.457Z,0.00
2016-09-02T00:47:34.972Z,0.00
2016-09-02T00:48:35.506Z,0.00
2016-09-02T00:49:36.004Z,0.00
2016-09-02T00:50:36.511Z,0.00
2016-09-02T00:51:37.025Z,0.00
2016-09-02T00:52:37.534Z,0.00
2016-09-02T00:53:38.047Z,0.00
2016-09-02T00:54:38.559Z,0.00
2016-09-02T00:55:39.072Z,0.00
2016-09-02T00:56:39.735Z,0.00
2016-09-02T00:57:40.103Z,0.00
2016-09-02T00:58:40.617Z,0.00
2016-09-02T00:59:41.273Z,0.00
2016-09-02T01:00:41.637Z,0.00
2016-09-02T01:01:42.295Z,0.00
2016-09-02T01:02:42.654Z,0.00
2016-09-02T01:03:43.186Z,0.00
2016-09-02T01:04:43.684Z,0.00
2016-09-02T01:05:44.196Z,0.00
2016-09-02T01:06:44.854Z,0.00
2016-09-02T01:07:45.215Z,0.00
2016-09-02T01:08:45.732Z,0.00
2016-09-02T01:09:46.237Z,0.00
2016-09-02T01:10:46.752Z,0.00
2016-09-02T01:11:47.263Z,0.00
2016-09-02T01:12:47.921Z,0.00
2016-09-02T01:13:48.430Z,0.00
2016-09-02T01:14:48.791Z,0.00
2016-09-02T01:15:50.958Z,0.00
2016-09-02T01:16:49.822Z,0.00
2016-09-02T01:17:50.337Z,0.00
2016-09-02T01:18:50.849Z,0.00
2016-09-02T01:19:51.363Z,0.00
2016-09-02T01:20:51.879Z,0.00
2016-09-02T01:21:52.393Z,0.00
2016-09-02T01:22:52.913Z,0.00
2016-09-02T01:23:53.443Z,0.00
2016-09-02T01:24:53.945Z,0.00
2016-09-02T01:25:54.461Z,0.00
2016-09-02T01:26:54.970Z,0.00
2016-09-02T01:27:55.632Z,0.00
2016-09-02T01:28:56.021Z,0.00
2016-09-02T01:29:56.506Z,0.00
2016-09-02T01:30:57.021Z,0.00
2016-09-02T01:31:57.532Z,0.00
2016-09-02T01:32:58.052Z,0.00
2016-09-02T01:33:58.550Z,0.00
2016-09-02T01:34:59.073Z,0.00
2016-09-02T01:35:59.581Z,0.00
2016-09-02T01:37:00.124Z,0.00
2016-09-02T01:38:00.612Z,0.00
2016-09-02T01:39:01.119Z,0.00
2016-09-02T01:40:01.780Z,0.00
2016-09-02T01:41:02.144Z,0.00
2016-09-02T01:42:02.805Z,0.00
2016-09-02T01:43:03.170Z,0.00
2016-09-02T01:44:03.681Z,0.00
2016-09-02T01:45:04.341Z,0.00
2016-09-02T01:46:04.703Z,0.00
2016-09-02T01:47:05.229Z,0.00
2016-09-02T01:48:05.723Z,0.00
2016-09-02T01:49:06.233Z,0.00
2016-09-02T01:50:07.195Z,0.00
2016-09-02T01:51:07.259Z,0.00
2016-09-02T01:52:07.770Z,0.00
2016-09-02T01:53:08.432Z,0.00
2016-09-02T01:54:08.819Z,0.00
2016-09-02T01:55:09.322Z,0.00
2016-09-02T01:56:09.821Z,0.00
2016-09-02T01:57:10.327Z,0.00
2016-09-02T01:58:10.841Z,0.00
2016-09-02T01:59:11.358Z,0.00
2016-09-02T02:00:12.023Z,0.00
2016-09-02T02:01:12.390Z,0.00
2016-09-02T02:02:12.902Z,0.00
2016-09-02T02:03:13.411Z,0.00
2016-09-02T02:04:13.926Z,0.00
2016-09-02T02:05:14.434Z,0.00
2016-09-02T02:06:14.944Z,0.00
2016-09-02T02:07:15.477Z,0.00
2016-09-02T02:08:15.994Z,0.00
2016-09-02T02:09:16.478Z,0.00
2016-09-02T02:10:16.990Z,0.00
2016-09-02T02:11:17.499Z,0.00
2016-09-02T02:12:18.013Z,0.00
2016-09-02T02:13:18.525Z,0.00
2016-09-02T02:14:19.031Z,0.00
2016-09-02T02:15:19.547Z,0.00
2016-09-02T02:16:20.065Z,0.00
2016-09-02T02:17:20.584Z,0.00
2016-09-02T02:18:21.083Z,0.00
2016-09-02T02:19:21.752Z,0.00
2016-09-02T02:20:22.114Z,0.00
2016-09-02T02:21:22.621Z,0.00
2016-09-02T02:22:23.148Z,0.00
2016-09-02T02:23:23.645Z,0.00
2016-09-02T02:24:24.161Z,0.00
2016-09-02T02:25:24.667Z,0.00
2016-09-02T02:26:25.178Z,0.00
2016-09-02T02:27:25.688Z,0.00
2016-09-02T02:28:26.202Z,0.00
2016-09-02T02:29:26.710Z,0.00
2016-09-02T02:30:27.225Z,0.00
2016-09-02T02:31:27.736Z,0.00
2016-09-02T02:32:28.409Z,0.00
2016-09-02T02:33:28.757Z,0.00
2016-09-02T02:34:29.267Z,0.00
2016-09-02T02:35:29.782Z,0.00
2016-09-02T02:36:30.292Z,0.00
2016-09-02T02:37:30.812Z,0.00
2016-09-02T02:38:31.334Z,0.00
2016-09-02T02:39:31.843Z,0.00
2016-09-02T02:40:32.359Z,0.00
2016-09-02T02:41:32.867Z,0.00
2016-09-02T02:42:33.387Z,0.00
2016-09-02T02:43:33.893Z,0.00
2016-09-02T02:44:34.414Z,0.00
2016-09-02T02:45:34.917Z,0.00
2016-09-02T02:46:35.459Z,0.00
2016-09-02T02:47:35.957Z,0.00
2016-09-02T02:48:36.449Z,0.00
2016-09-02T02:49:36.981Z,0.00
2016-09-02T02:50:37.471Z,0.00
2016-09-02T02:51:37.985Z,0.00
2016-09-02T02:52:38.497Z,0.00
2016-09-02T02:53:39.010Z,0.00
2016-09-02T02:54:39.522Z,0.00
2016-09-02T02:55:40.047Z,0.00
2016-09-02T02:56:40.549Z,0.00
2016-09-02T02:57:41.057Z,0.00
2016-09-02T02:58:41.571Z,0.00
2016-09-02T02:59:42.235Z,0.00
2016-09-02T03:00:42.620Z,0.00
2016-09-02T03:01:43.108Z,0.00
2016-09-02T03:02:43.623Z,0.00
2016-09-02T03:03:44.131Z,0.00
2016-09-02T03:04:44.669Z,0.00
2016-09-02T03:05:45.163Z,0.00
2016-09-02T03:06:45.668Z,0.00
2016-09-02T03:07:46.329Z,0.00
2016-09-02T03:08:46.702Z,0.00
2016-09-02T03:09:47.208Z,0.00
2016-09-02T03:10:47.719Z,0.00
2016-09-02T03:11:48.233Z,0.00
2016-09-02T03:12:48.753Z,0.00
2016-09-02T03:13:49.263Z,0.00
2016-09-02T03:14:49.784Z,0.00
2016-09-02T03:15:50.444Z,0.00
2016-09-02T03:16:50.815Z,0.00
2016-09-02T03:17:51.330Z,0.00
2016-09-02T03:18:51.848Z,0.00
2016-09-02T03:19:52.366Z,0.00
2016-09-02T03:20:52.878Z,0.00
2016-09-02T03:21:53.385Z,0.00
2016-09-02T03:22:53.895Z,0.00
2016-09-02T03:23:54.404Z,0.00
2016-09-02T03:24:54.917Z,0.00
2016-09-02T03:25:55.576Z,0.00
2016-09-02T03:26:55.959Z,0.00
2016-09-02T03:27:56.447Z,0.00
2016-09-02T03:28:56.957Z,0.00
2016-09-02T03:29:57.471Z,0.00
2016-09-02T03:30:57.986Z,0.00
2016-09-02T03:31:58.495Z,0.00
2016-09-02T03:32:59.013Z,0.00
2016-09-02T03:33:59.517Z,0.00
2016-09-02T03:35:00.034Z,0.00
2016-09-02T03:36:00.539Z,0.00
2016-09-02T03:37:01.202Z,0.00
2016-09-02T03:38:01.566Z,0.00
2016-09-02T03:39:02.236Z,0.00
2016-09-02T03:40:02.613Z,0.00
2016-09-02T03:41:04.040Z,0.00
2016-09-02T03:42:03.613Z,0.00
2016-09-02T03:43:04.128Z,0.00
2016-09-02T03:44:04.638Z,0.00
2016-09-02T03:45:05.146Z,0.00
2016-09-02T03:46:05.658Z,0.00
2016-09-02T03:47:06.169Z,0.00
2016-09-02T03:48:06.828Z,0.00
2016-09-02T03:49:07.194Z,0.00
2016-09-02T03:50:07.709Z,0.00
2016-09-02T03:51:08.371Z,0.00
2016-09-02T03:52:08.736Z,0.00
2016-09-02T03:53:09.282Z,0.00
2016-09-02T03:54:09.766Z,0.00
2016-09-02T03:55:10.272Z,0.00
2016-09-02T03:56:10.794Z,0.00
2016-09-02T03:57:11.304Z,0.00
2016-09-02T03:58:11.824Z,0.00
2016-09-02T03:59:12.331Z,0.00
2016-09-02T04:00:13.159Z,0.00
2016-09-02T04:01:13.350Z,0.00
2016-09-02T04:02:13.866Z,0.00
2016-09-02T04:03:14.380Z,0.00
2016-09-02T04:04:14.891Z,0.00
2016-09-02T04:05:15.396Z,0.00
2016-09-02T04:06:15.938Z,0.00
2016-09-02T04:07:16.427Z,0.00
2016-09-02T04:08:16.963Z,0.00
2016-09-02T04:09:17.466Z,0.00
2016-09-02T04:10:18.408Z,0.00
2016-09-02T04:11:18.470Z,0.00
2016-09-02T04:12:18.981Z,0.00
2016-09-02T04:13:19.498Z,0.00
2016-09-02T04:14:20.005Z,0.00
2016-09-02T04:15:20.522Z,0.20
2016-09-02T04:16:21.035Z,0.20
2016-09-02T04:17:21.694Z,0.20
2016-09-02T04:18:22.096Z,0.10
2016-09-02T04:19:22.563Z,0.10
2016-09-02T04:20:23.080Z,0.30
2016-09-02T04:21:23.596Z,0.10
2016-09-02T04:22:24.099Z,0.10
2016-09-02T04:23:24.637Z,0.00
2016-09-02T04:24:25.125Z,0.00
2016-09-02T04:25:25.664Z,0.00
2016-09-02T04:26:26.150Z,0.00
2016-09-02T04:27:26.675Z,0.10
2016-09-02T04:28:27.176Z,0.00
2016-09-02T04:29:27.687Z,0.30
2016-09-02T04:30:28.203Z,0.00
2016-09-02T04:31:28.739Z,0.00
2016-09-02T04:32:29.236Z,0.10
2016-09-02T04:33:29.895Z,0.00
2016-09-02T04:34:30.264Z,0.40
2016-09-02T04:35:30.778Z,0.40
2016-09-02T04:36:31.286Z,0.10
2016-09-02T04:37:31.803Z,0.20
2016-09-02T04:38:32.315Z,0.50
2016-09-02T04:39:32.830Z,0.00
2016-09-02T04:40:33.342Z,0.00
2016-09-02T04:41:33.855Z,0.50
2016-09-02T04:42:34.370Z,0.10
2016-09-02T04:43:34.879Z,0.00
2016-09-02T04:44:35.393Z,0.40
2016-09-02T04:45:36.054Z,0.10
2016-09-02T04:46:36.417Z,0.40
2016-09-02T04:47:36.927Z,0.40
2016-09-02T04:48:37.443Z,0.20
2016-09-02T04:49:37.953Z,0.00
2016-09-02T04:50:38.466Z,0.00
2016-09-02T04:51:38.989Z,0.00
2016-09-02T04:52:39.492Z,0.00
2016-09-02T04:53:40.008Z,0.20
2016-09-02T04:54:40.519Z,0.10
2016-09-02T04:55:41.033Z,0.30
2016-09-02T04:56:41.549Z,0.30
2016-09-02T04:57:42.065Z,0.40
2016-09-02T04:58:42.596Z,0.20
2016-09-02T04:59:43.109Z,0.20
2016-09-02T05:00:43.599Z,0.00
2016-09-02T05:01:44.110Z,0.00
2016-09-02T05:02:44.627Z,0.30
2016-09-02T05:03:45.139Z,0.30
2016-09-02T05:04:45.801Z,0.10
2016-09-02T05:05:46.165Z,0.00
2016-09-02T05:06:46.683Z,0.30
2016-09-02T05:07:47.195Z,0.20
2016-09-02T05:08:47.724Z,0.70
2016-09-02T05:09:48.374Z,0.60
2016-09-02T05:10:48.741Z,0.50
2016-09-02T05:11:49.255Z,0.50
2016-09-02T05:12:49.776Z,0.70
2016-09-02T05:13:50.272Z,0.50
2016-09-02T05:14:50.785Z,0.80
2016-09-02T05:15:51.296Z,0.70
2016-09-02T05:16:51.830Z,0.70
2016-09-02T05:17:52.471Z,0.60
2016-09-02T05:18:52.834Z,0.00
2016-09-02T05:19:53.344Z,0.00
2016-09-02T05:20:53.856Z,0.00
2016-09-02T05:21:54.367Z,0.30
2016-09-02T05:22:54.881Z,0.10
2016-09-02T05:23:55.397Z,0.00
2016-09-02T05:24:55.907Z,0.00
2016-09-02T05:25:56.419Z,0.10
2016-09-02T05:26:56.959Z,0.30
2016-09-02T05:27:57.441Z,0.20
2016-09-02T05:28:57.960Z,0.10
2016-09-02T05:29:58.473Z,0.20
2016-09-02T05:30:58.980Z,0.80
2016-09-02T05:31:59.492Z,1.00
2016-09-02T05:33:00.001Z,1.40
2016-09-02T05:34:00.516Z,1.10
2016-09-02T05:35:01.024Z,0.80
2016-09-02T05:36:01.567Z,1.70
2016-09-02T05:37:02.049Z,1.50
2016-09-02T05:38:02.572Z,2.10
2016-09-02T05:39:03.090Z,0.80
2016-09-02T05:40:03.591Z,2.60
2016-09-02T05:41:04.245Z,2.40
2016-09-02T05:42:04.602Z,1.50
2016-09-02T05:43:05.118Z,1.40
2016-09-02T05:44:05.632Z,1.40
2016-09-02T05:45:06.157Z,1.40
2016-09-02T05:46:06.669Z,1.60
2016-09-02T05:47:07.334Z,1.90
2016-09-02T05:48:07.696Z,0.50
2016-09-02T05:49:08.230Z,0.50
2016-09-02T05:50:08.740Z,0.70
2016-09-02T05:51:09.229Z,1.40
2016-09-02T05:52:09.741Z,1.40
2016-09-02T05:53:10.286Z,0.70
2016-09-02T05:54:10.774Z,1.10
2016-09-02T05:55:11.292Z,0.70
2016-09-02T05:56:11.806Z,0.40
2016-09-02T05:57:12.322Z,0.30
2016-09-02T05:58:12.834Z,0.70
2016-09-02T05:59:13.354Z,1.00
2016-09-02T06:00:13.896Z,0.40
2016-09-02T06:01:14.381Z,0.40
2016-09-02T06:02:16.542Z,0.40
2016-09-02T06:03:15.413Z,0.50
2016-09-02T06:04:15.918Z,0.90
2016-09-02T06:05:17.236Z,0.90
2016-09-02T06:06:16.939Z,0.60
2016-09-02T06:07:17.456Z,0.60
2016-09-02T06:08:17.968Z,0.90
2016-09-02T06:09:18.486Z,0.70
2016-09-02T06:10:18.988Z,0.80
2016-09-02T06:11:19.505Z,0.80
2016-09-02T06:12:20.020Z,0.00
2016-09-02T06:13:20.525Z,0.50
2016-09-02T06:14:21.032Z,0.40
2016-09-02T06:15:21.546Z,0.20
2016-09-02T06:16:22.064Z,0.20
2016-09-02T06:17:22.575Z,0.10
2016-09-02T06:18:23.088Z,0.00
2016-09-02T06:19:23.600Z,0.00
2016-09-02T06:20:24.282Z,0.00
2016-09-02T06:21:24.632Z,0.00
2016-09-02T06:22:25.146Z,0.00
2016-09-02T06:23:25.664Z,0.00
2016-09-02T06:24:26.180Z,0.00
2016-09-02T06:25:26.692Z,0.00
2016-09-02T06:26:27.206Z,0.00
2016-09-02T06:27:27.745Z,0.10
2016-09-02T06:28:28.233Z,0.00
2016-09-02T06:29:28.744Z,0.30
2016-09-02T06:30:29.260Z,0.30
2016-09-02T06:31:29.924Z,0.80
2016-09-02T06:32:30.283Z,0.50
2016-09-02T06:33:30.791Z,0.30
2016-09-02T06:34:31.320Z,0.20
2016-09-02T06:35:31.962Z,0.10
2016-09-02T06:36:32.340Z,0.00
2016-09-02T06:37:32.866Z,0.10
2016-09-02T06:38:33.352Z,0.80
2016-09-02T06:39:33.869Z,0.50
2016-09-02T06:40:34.378Z,0.50
2016-09-02T06:41:34.890Z,0.00
2016-09-02T06:42:35.412Z,0.00
2016-09-02T06:43:35.917Z,0.00
2016-09-02T06:44:36.434Z,0.00
2016-09-02T06:45:36.944Z,0.00
2016-09-02T06:46:37.464Z,0.00
2016-09-02T06:47:37.989Z,0.00
2016-09-02T06:48:38.493Z,0.00
2016-09-02T06:49:38.987Z,0.00
2016-09-02T06:50:39.525Z,0.00
2016-09-02T06:51:40.011Z,0.00
2016-09-02T06:52:40.526Z,0.00
2016-09-02T06:53:41.035Z,0.00
2016-09-02T06:54:41.542Z,0.00
2016-09-02T06:55:42.054Z,0.00
2016-09-02T06:56:42.568Z,0.10
2016-09-02T06:57:43.082Z,1.10
2016-09-02T06:58:43.745Z,1.40
2016-09-02T06:59:44.272Z,1.30
2016-09-02T07:00:44.630Z,0.70
2016-09-02T07:01:45.140Z,1.30
2016-09-02T07:02:45.654Z,1.60
2016-09-02T07:03:46.164Z,1.10
2016-09-02T07:04:46.676Z,0.30
2016-09-02T07:05:47.192Z,0.60
2016-09-02T07:06:47.705Z,0.70
2016-09-02T07:07:48.214Z,0.00
2016-09-02T07:08:48.729Z,0.00
2016-09-02T07:09:49.233Z,0.00
2016-09-02T07:10:49.745Z,0.50
2016-09-02T07:11:50.261Z,0.80
2016-09-02T07:12:50.924Z,0.00
2016-09-02T07:13:51.310Z,0.30
2016-09-02T07:14:51.796Z,0.30
2016-09-02T07:15:52.332Z,0.00
2016-09-02T07:16:52.819Z,0.30
2016-09-02T07:17:53.330Z,0.40
2016-09-02T07:18:53.844Z,0.00
2016-09-02T07:19:54.349Z,0.40
2016-09-02T07:20:54.864Z,0.00
2016-09-02T07:21:55.372Z,0.00
2016-09-02T07:22:55.890Z,0.40
2016-09-02T07:23:56.400Z,0.40
2016-09-02T07:24:56.914Z,0.20
2016-09-02T07:25:57.425Z,0.60
2016-09-02T07:26:58.086Z,0.00
2016-09-02T07:27:58.447Z,0.00
2016-09-02T07:28:58.989Z,0.00
2016-09-02T07:29:59.471Z,0.00
2016-09-02T07:30:59.985Z,0.00
2016-09-02T07:32:00.496Z,0.00
2016-09-02T07:33:01.006Z,0.00
2016-09-02T07:34:01.518Z,0.30
2016-09-02T07:35:03.870Z,1.20
2016-09-02T07:36:02.550Z,0.00
2016-09-02T07:37:03.058Z,0.30
2016-09-02T07:38:03.574Z,0.20
2016-09-02T07:39:04.101Z,0.00
2016-09-02T07:40:04.611Z,0.00
2016-09-02T07:41:05.123Z,0.00
2016-09-02T07:42:05.677Z,0.00
2016-09-02T07:43:06.174Z,0.10
2016-09-02T07:44:06.666Z,0.00
2016-09-02T07:45:07.183Z,0.00
2016-09-02T07:46:07.838Z,0.00
2016-09-02T07:47:08.200Z,0.00
2016-09-02T07:48:08.717Z,0.00
2016-09-02T07:49:09.260Z,0.00
2016-09-02T07:50:09.882Z,0.70
2016-09-02T07:51:10.247Z,0.40
2016-09-02T07:52:10.783Z,0.00
2016-09-02T07:53:11.414Z,0.00
2016-09-02T07:54:11.779Z,0.00
2016-09-02T07:55:12.292Z,0.00
2016-09-02T07:56:12.818Z,0.00
2016-09-02T07:57:13.462Z,0.10
2016-09-02T07:58:13.824Z,0.00
2016-09-02T07:59:14.337Z,0.60
2016-09-02T08:00:14.849Z,0.50
2016-09-02T08:01:15.357Z,0.30
2016-09-02T08:02:15.875Z,0.00
2016-09-02T08:03:16.415Z,0.20
2016-09-02T08:04:16.903Z,0.60
2016-09-02T08:05:17.415Z,0.00
2016-09-02T08:06:17.937Z,0.20
2016-09-02T08:07:18.440Z,0.00
2016-09-02T08:08:18.954Z,0.00
2016-09-02T08:09:19.482Z,0.50
2016-09-02T08:10:19.981Z,0.30
2016-09-02T08:11:20.490Z,0.00
2016-09-02T08:12:21.003Z,0.00
2016-09-02T08:13:21.517Z,0.00
2016-09-02T08:14:22.032Z,0.00
2016-09-02T08:15:22.555Z,0.00
2016-09-02T08:16:23.069Z,0.00
2016-09-02T08:17:23.584Z,0.10
2016-09-02T08:18:24.098Z,0.20
2016-09-02T08:19:24.610Z,0.10
2016-09-02T08:20:25.126Z,0.00
2016-09-02T08:21:25.634Z,0.00
2016-09-02T08:22:26.150Z,0.00
2016-09-02T08:23:26.684Z,0.00
2016-09-02T08:24:27.179Z,0.00
2016-09-02T08:25:27.686Z,0.10
2016-09-02T08:26:30.002Z,0.00
2016-09-02T08:27:28.719Z,0.00
2016-09-02T08:28:29.226Z,0.40
2016-09-02T08:29:29.734Z,0.60
2016-09-02T08:30:30.391Z,0.30
2016-09-02T08:31:30.758Z,0.10
2016-09-02T08:32:31.271Z,0.20
2016-09-02T08:33:31.791Z,0.40
2016-09-02T08:34:32.291Z,0.00
2016-09-02T08:35:32.809Z,0.00
2016-09-02T08:36:33.465Z,0.00
2016-09-02T08:37:33.852Z,0.20
2016-09-02T08:38:34.338Z,0.00
2016-09-02T08:39:34.849Z,0.30
2016-09-02T08:40:35.360Z,0.00
2016-09-02T08:41:35.874Z,0.00
2016-09-02T08:42:36.383Z,0.00
2016-09-02T08:43:36.900Z,0.00
2016-09-02T08:44:37.431Z,0.00
2016-09-02T08:45:37.943Z,0.00
2016-09-02T08:46:38.439Z,0.00
2016-09-02T08:47:38.955Z,0.00
2016-09-02T08:48:39.459Z,0.00
2016-09-02T08:49:40.123Z,0.00
2016-09-02T08:50:40.481Z,0.00
2016-09-02T08:51:40.998Z,0.10
2016-09-02T08:52:41.515Z,0.70
2016-09-02T08:53:42.024Z,0.10
2016-09-02T08:54:42.541Z,0.40
2016-09-02T08:55:43.053Z,0.60
2016-09-02T08:56:43.572Z,0.30
2016-09-02T08:57:44.081Z,0.00
2016-09-02T08:58:44.583Z,0.00
2016-09-02T08:59:45.097Z,0.00
2016-09-02T09:00:45.617Z,0.00
2016-09-02T09:01:46.123Z,0.00
2016-09-02T09:02:46.631Z,0.00
2016-09-02T09:03:47.141Z,0.00
2016-09-02T09:04:47.654Z,0.60
2016-09-02T09:05:48.168Z,0.00
2016-09-02T09:06:48.702Z,0.20
2016-09-02T09:07:49.191Z,0.30
2016-09-02T09:08:49.700Z,0.00
2016-09-02T09:09:50.209Z,0.00
2016-09-02T09:10:50.723Z,0.00
2016-09-02T09:11:51.242Z,0.00
2016-09-02T09:12:51.752Z,0.00
2016-09-02T09:13:52.308Z,0.00
2016-09-02T09:14:52.800Z,0.10
2016-09-02T09:15:53.288Z,0.00
2016-09-02T09:16:53.797Z,0.00
2016-09-02T09:17:54.331Z,0.00
2016-09-02T09:18:54.821Z,0.00
2016-09-02T09:19:55.334Z,0.00
2016-09-02T09:20:55.855Z,0.00
2016-09-02T09:21:56.354Z,0.00
2016-09-02T09:22:56.868Z,0.00
2016-09-02T09:23:57.382Z,0.00
2016-09-02T09:24:57.892Z,0.00
2016-09-02T09:25:58.438Z,0.00
2016-09-02T09:26:58.917Z,0.00
2016-09-02T09:27:59.429Z,0.00
2016-09-02T09:28:59.945Z,0.00
2016-09-02T09:30:00.460Z,0.00
2016-09-02T09:31:01.001Z,0.00
2016-09-02T09:32:01.522Z,0.00
2016-09-02T09:33:02.002Z,0.00
2016-09-02T09:34:02.517Z,0.20
2016-09-02T09:35:03.024Z,0.00
2016-09-02T09:36:03.546Z,0.00
2016-09-02T09:37:04.050Z,0.00
2016-09-02T09:38:04.567Z,0.00
2016-09-02T09:39:05.079Z,0.00
2016-09-02T09:40:05.594Z,0.00
2016-09-02T09:41:06.105Z,0.00
2016-09-02T09:42:06.645Z,0.00
2016-09-02T09:43:07.126Z,0.50
2016-09-02T09:44:07.791Z,0.00
2016-09-02T09:45:08.173Z,0.00
2016-09-02T09:46:08.662Z,0.00
2016-09-02T09:47:09.174Z,0.00
2016-09-02T09:48:09.706Z,0.00
2016-09-02T09:49:10.206Z,0.00
2016-09-02T09:50:11.163Z,0.00
2016-09-02T09:51:11.224Z,0.00
2016-09-02T09:52:11.738Z,0.00
2016-09-02T09:53:12.247Z,0.00
2016-09-02T09:54:12.760Z,0.00
2016-09-02T09:55:13.270Z,0.00
2016-09-02T09:56:13.933Z,0.00
2016-09-02T09:57:14.296Z,0.00
2016-09-02T09:58:14.835Z,0.00
2016-09-02T09:59:15.321Z,0.00
2016-09-02T10:00:16.079Z,0.00
2016-09-02T10:01:16.347Z,0.00
2016-09-02T10:02:16.855Z,0.00
2016-09-02T10:03:18.728Z,0.00
2016-09-02T10:04:17.879Z,0.00
2016-09-02T10:05:18.406Z,0.00
2016-09-02T10:06:18.921Z,0.00
2016-09-02T10:07:19.424Z,0.00
2016-09-02T10:08:19.942Z,0.00
2016-09-02T10:09:20.455Z,0.00
2016-09-02T10:10:20.970Z,0.00
2016-09-02T10:11:21.481Z,0.00
2016-09-02T10:12:21.999Z,0.00
2016-09-02T10:13:22.507Z,0.00
2016-09-02T10:14:23.024Z,0.00
2016-09-02T10:15:23.536Z,0.00
2016-09-02T10:16:24.049Z,0.00
2016-09-02T10:17:24.559Z,0.00
2016-09-02T10:18:25.069Z,0.00
2016-09-02T10:19:25.585Z,0.00
2016-09-02T10:20:26.098Z,0.00
2016-09-02T10:21:26.604Z,0.00
2016-09-02T10:22:27.115Z,0.00
2016-09-02T10:23:27.781Z,0.00
2016-09-02T10:24:28.290Z,0.00
2016-09-02T10:25:28.683Z,0.00
2016-09-02T10:26:29.157Z,0.00
2016-09-02T10:27:29.670Z,0.00
2016-09-02T10:28:30.181Z,0.00
2016-09-02T10:29:30.695Z,0.00
2016-09-02T10:30:31.205Z,0.00
2016-09-02T10:31:31.720Z,0.00
2016-09-02T10:32:32.234Z,0.00
2016-09-02T10:33:32.744Z,0.00
2016-09-02T10:34:33.277Z,0.00
2016-09-02T10:35:33.922Z,0.00
2016-09-02T10:36:34.286Z,0.00
2016-09-02T10:37:34.798Z,0.00
2016-09-02T10:38:35.309Z,0.00
2016-09-02T10:39:35.852Z,0.00
2016-09-02T10:40:36.335Z,0.00
2016-09-02T10:41:36.850Z,0.00
2016-09-02T10:42:37.361Z,0.00
2016-09-02T10:43:37.880Z,0.00
2016-09-02T10:44:38.397Z,0.00
2016-09-02T10:45:39.513Z,0.00
2016-09-02T10:46:39.429Z,0.00
2016-09-02T10:47:39.941Z,0.00
2016-09-02T10:48:40.457Z,0.00
2016-09-02T10:49:40.984Z,0.00
2016-09-02T10:50:41.485Z,0.00
2016-09-02T10:51:43.651Z,0.00
2016-09-02T10:52:42.524Z,0.00
2016-09-02T10:53:43.167Z,0.00
2016-09-02T10:54:43.535Z,0.00
2016-09-02T10:55:44.040Z,0.00
2016-09-02T10:56:44.557Z,0.00
2016-09-02T10:57:45.071Z,0.00
2016-09-02T10:58:45.588Z,0.00
2016-09-02T10:59:46.093Z,0.00
2016-09-02T11:00:46.610Z,0.00
2016-09-02T11:01:47.119Z,0.00
2016-09-02T11:02:47.632Z,0.60
2016-09-02T11:03:48.143Z,1.00
2016-09-02T11:04:48.660Z,0.30
2016-09-02T11:05:49.349Z,0.30
2016-09-02T11:06:49.712Z,0.00
2016-09-02T11:07:50.201Z,0.00
2016-09-02T11:08:50.712Z,0.00
2016-09-02T11:09:51.227Z,0.00
2016-09-02T11:10:51.897Z,0.00
2016-09-02T11:11:52.263Z,0.00
2016-09-02T11:12:52.780Z,0.00
2016-09-02T11:13:53.276Z,0.50
2016-09-02T11:14:53.790Z,0.40
2016-09-02T11:15:54.324Z,0.00
2016-09-02T11:16:54.815Z,0.00
2016-09-02T11:17:55.331Z,0.00
2016-09-02T11:18:55.846Z,0.00
2016-09-02T11:19:56.356Z,0.00
2016-09-02T11:20:56.877Z,0.00
2016-09-02T11:21:57.389Z,0.00
2016-09-02T11:22:57.903Z,0.00
2016-09-02T11:23:58.422Z,0.00
2016-09-02T11:24:58.948Z,0.00
2016-09-02T11:25:59.473Z,0.00
2016-09-02T11:26:59.962Z,0.00
2016-09-02T11:28:00.473Z,0.00
2016-09-02T11:29:00.989Z,0.00
2016-09-02T11:30:01.501Z,0.00
2016-09-02T11:31:02.030Z,0.00
2016-09-02T11:32:02.524Z,0.00
2016-09-02T11:33:03.039Z,0.00
2016-09-02T11:34:03.547Z,0.00
2016-09-02T11:35:04.064Z,0.00
2016-09-02T11:36:04.576Z,0.00
2016-09-02T11:37:05.383Z,0.00
2016-09-02T11:38:05.746Z,0.00
2016-09-02T11:39:06.107Z,0.00
2016-09-02T11:40:06.620Z,0.00
2016-09-02T11:41:07.141Z,0.00
2016-09-02T11:42:07.645Z,0.00
2016-09-02T11:43:08.158Z,0.00
2016-09-02T11:44:08.669Z,0.00
2016-09-02T11:45:09.186Z,0.00
2016-09-02T11:46:09.845Z,0.00
2016-09-02T11:47:10.206Z,0.00
2016-09-02T11:48:10.714Z,0.00
2016-09-02T11:49:11.234Z,0.00
2016-09-02T11:50:11.737Z,0.00
2016-09-02T11:51:12.250Z,0.00
2016-09-02T11:52:12.779Z,0.00
2016-09-02T11:53:13.298Z,0.00
2016-09-02T11:54:13.935Z,0.00
2016-09-02T11:55:14.300Z,0.00
2016-09-02T11:56:14.818Z,0.00
2016-09-02T11:57:15.338Z,0.00
2016-09-02T11:58:15.857Z,0.00
2016-09-02T11:59:16.369Z,0.00
2016-09-02T12:00:16.884Z,0.00
2016-09-02T12:01:17.402Z,0.00
2016-09-02T12:02:17.916Z,0.00
2016-09-02T12:03:18.432Z,0.20
2016-09-02T12:04:18.943Z,0.30
2016-09-02T12:05:19.466Z,0.00
2016-09-02T12:06:19.999Z,0.00
2016-09-02T12:07:20.482Z,0.00
2016-09-02T12:08:20.995Z,0.00
2016-09-02T12:09:21.509Z,0.00
2016-09-02T12:10:22.025Z,0.00
2016-09-02T12:11:22.528Z,0.00
2016-09-02T12:12:23.048Z,0.00
2016-09-02T12:13:23.555Z,0.00
2016-09-02T12:14:24.067Z,0.00
2016-09-02T12:15:24.579Z,0.00
2016-09-02T12:16:25.091Z,0.00
2016-09-02T12:17:25.602Z,0.00
2016-09-02T12:18:26.113Z,0.00
2016-09-02T12:19:26.633Z,0.00
2016-09-02T12:20:27.157Z,0.00
2016-09-02T12:21:27.654Z,0.00
2016-09-02T12:22:28.161Z,0.00
2016-09-02T12:23:28.676Z,0.10
2016-09-02T12:24:29.192Z,0.00
2016-09-02T12:25:29.699Z,0.00
2016-09-02T12:26:30.216Z,0.00
2016-09-02T12:27:30.878Z,0.00
2016-09-02T12:28:31.236Z,0.00
2016-09-02T12:29:31.753Z,0.00
2016-09-02T12:30:32.265Z,0.00
2016-09-02T12:31:32.776Z,0.00
2016-09-02T12:32:33.296Z,0.00
2016-09-02T12:33:33.957Z,0.00
2016-09-02T12:34:34.327Z,0.00
2016-09-02T12:35:34.850Z,0.00
2016-09-02T12:36:35.359Z,0.00
2016-09-02T12:37:35.880Z,0.00
2016-09-02T12:38:36.394Z,0.00
2016-09-02T12:39:36.906Z,0.00
2016-09-02T12:40:37.569Z,0.00
2016-09-02T12:41:37.931Z,0.00
2016-09-02T12:42:38.448Z,0.00
2016-09-02T12:43:38.954Z,0.00
2016-09-02T12:44:39.471Z,0.00
2016-09-02T12:45:39.985Z,0.00
2016-09-02T12:46:40.527Z,0.00
2016-09-02T12:47:41.005Z,0.00
2016-09-02T12:48:41.539Z,0.00
2016-09-02T12:49:42.027Z,0.00
2016-09-02T12:50:42.537Z,0.00
2016-09-02T12:51:43.048Z,0.00
2016-09-02T12:52:43.564Z,0.00
2016-09-02T12:53:44.080Z,0.00
2016-09-02T12:54:44.590Z,0.00
2016-09-02T12:55:45.117Z,0.00
2016-09-02T12:56:45.614Z,0.00
2016-09-02T12:57:47.929Z,0.70
2016-09-02T12:58:46.638Z,0.70
2016-09-02T12:59:47.155Z,0.00
2016-09-02T13:00:47.689Z,0.00
2016-09-02T13:01:48.173Z,0.00
2016-09-02T13:02:48.684Z,0.00
2016-09-02T13:03:49.198Z,0.00
2016-09-02T13:04:49.708Z,0.00
2016-09-02T13:05:50.225Z,0.00
2016-09-02T13:06:50.743Z,0.00
2016-09-02T13:07:51.250Z,0.00
2016-09-02T13:08:51.766Z,0.00
2016-09-02T13:09:52.278Z,0.00
2016-09-02T13:10:52.793Z,0.00
2016-09-02T13:11:53.313Z,0.00
2016-09-02T13:12:53.832Z,0.00
2016-09-02T13:13:54.494Z,0.00
2016-09-02T13:14:54.858Z,0.00
2016-09-02T13:15:55.374Z,0.00
2016-09-02T13:16:55.907Z,0.00
2016-09-02T13:17:56.398Z,0.00
2016-09-02T13:18:56.913Z,0.00
2016-09-02T13:19:57.427Z,0.00
2016-09-02T13:20:57.934Z,0.00
2016-09-02T13:21:58.440Z,0.00
2016-09-02T13:22:58.958Z,0.00
2016-09-02T13:23:59.465Z,0.00
2016-09-02T13:24:59.998Z,0.00